Miami, Florida
Traffic Map
Current Weather Conditions
Miami, Florida
Broken Clouds
Broken Clouds
70°
Feels Like: 70°
Wind Chill: 70° Ceiling: 5500
Heat Index: 70° Visibility: 10mi
Dew Point: 61° Wind: 9mph
Humidity: 73% Direction: 310° (NW)
Pressure: 30.09in Gusts: 0mph
Raw Report DataKMIA 101453Z 31008KT 10SM SCT022 BKN055 21/16 A3009 RMK AO2 SLP187 T02110161 53024
Traffic Incident Summary
Active as of:
Severity:
Category:
InformationThere was an issue retrieving the traffic information for this location. Please try a different location or try again shortly.
Advertisements